sensor_id;sensor_type;location;lat;lon;timestamp;temperature;humidity
5059;DHT22;2548;52.050;11.036;2023-03-23T00:02:25;11.90;99.90
5059;DHT22;2548;52.050;11.036;2023-03-23T00:04:54;11.80;99.90
5059;DHT22;2548;52.050;11.036;2023-03-23T00:07:23;11.80;99.90
5059;DHT22;2548;52.050;11.036;2023-03-23T00:09:54;11.70;99.90
5059;DHT22;2548;52.050;11.036;2023-03-23T00:12:23;11.60;99.90
5059;DHT22;2548;52.050;11.036;2023-03-23T00:14:55;11.60;99.90
5059;DHT22;2548;52.050;11.036;2023-03-23T00:17:22;11.60;99.90
5059;DHT22;2548;52.050;11.036;2023-03-23T00:19:51;11.60;99.90
5059;DHT22;2548;52.050;11.036;2023-03-23T00:22:20;11.70;99.90
5059;DHT22;2548;52.050;11.036;2023-03-23T00:24:51;11.80;99.90
5059;DHT22;2548;52.050;11.036;2023-03-23T00:27:19;11.90;99.90
5059;DHT22;2548;52.050;11.036;2023-03-23T00:29:48;12.00;99.90
5059;DHT22;2548;52.050;11.036;2023-03-23T00:32:20;12.10;99.90
5059;DHT22;2548;52.050;11.036;2023-03-23T00:34:53;12.30;99.90
5059;DHT22;2548;52.050;11.036;2023-03-23T00:37:24;12.30;99.90
5059;DHT22;2548;52.050;11.036;2023-03-23T00:39:51;12.40;99.90
5059;DHT22;2548;52.050;11.036;2023-03-23T00:42:23;12.40;99.90
5059;DHT22;2548;52.050;11.036;2023-03-23T00:44:51;12.40;99.90
5059;DHT22;2548;52.050;11.036;2023-03-23T00:47:26;12.50;99.90
5059;DHT22;2548;52.050;11.036;2023-03-23T00:49:53;12.50;99.90
5059;DHT22;2548;52.050;11.036;2023-03-23T00:52:23;12.60;99.90
5059;DHT22;2548;52.050;11.036;2023-03-23T00:54:51;12.70;99.90
5059;DHT22;2548;52.050;11.036;2023-03-23T00:57:19;12.70;99.90
5059;DHT22;2548;52.050;11.036;2023-03-23T00:59:50;12.70;99.90
5059;DHT22;2548;52.050;11.036;2023-03-23T01:02:18;12.70;99.90
5059;DHT22;2548;52.050;11.036;2023-03-23T01:04:45;12.70;99.90
5059;DHT22;2548;52.050;11.036;2023-03-23T01:07:18;12.60;99.90
5059;DHT22;2548;52.050;11.036;2023-03-23T01:09:47;12.60;99.90
5059;DHT22;2548;52.050;11.036;2023-03-23T01:12:15;12.60;99.90
5059;DHT22;2548;52.050;11.036;2023-03-23T01:14:42;12.50;99.90
5059;DHT22;2548;52.050;11.036;2023-03-23T01:17:10;12.50;99.90
5059;DHT22;2548;52.050;11.036;2023-03-23T01:19:37;12.50;99.90
5059;DHT22;2548;52.050;11.036;2023-03-23T01:22:06;12.50;99.90
5059;DHT22;2548;52.050;11.036;2023-03-23T01:24:33;12.50;99.90
5059;DHT22;2548;52.050;11.036;2023-03-23T01:27:02;12.50;99.90
5059;DHT22;2548;52.050;11.036;2023-03-23T01:29:33;12.50;99.90
5059;DHT22;2548;52.050;11.036;2023-03-23T01:32:01;12.50;99.90
5059;DHT22;2548;52.050;11.036;2023-03-23T01:34:29;12.50;99.90
5059;DHT22;2548;52.050;11.036;2023-03-23T01:36:57;12.50;99.90
5059;DHT22;2548;52.050;11.036;2023-03-23T01:39:25;12.50;99.90
5059;DHT22;2548;52.050;11.036;2023-03-23T01:41:52;12.40;99.90
5059;DHT22;2548;52.050;11.036;2023-03-23T01:47:33;12.50;99.90
5059;DHT22;2548;52.050;11.036;2023-03-23T01:50:01;12.50;99.90
5059;DHT22;2548;52.050;11.036;2023-03-23T01:52:29;12.40;99.90
5059;DHT22;2548;52.050;11.036;2023-03-23T01:55:02;12.40;99.90
5059;DHT22;2548;52.050;11.036;2023-03-23T01:57:30;12.30;99.90
5059;DHT22;2548;52.050;11.036;2023-03-23T02:00:03;12.20;99.90
5059;DHT22;2548;52.050;11.036;2023-03-23T02:02:49;12.10;99.90
5059;DHT22;2548;52.050;11.036;2023-03-23T02:05:25;12.00;99.90
5059;DHT22;2548;52.050;11.036;2023-03-23T02:07:57;11.90;99.90
5059;DHT22;2548;52.050;11.036;2023-03-23T02:10:30;11.80;99.90
5059;DHT22;2548;52.050;11.036;2023-03-23T02:12:58;11.70;99.90
5059;DHT22;2548;52.050;11.036;2023-03-23T02:15:28;11.60;99.90
5059;DHT22;2548;52.050;11.036;2023-03-23T02:18:05;11.60;99.90
5059;DHT22;2548;52.050;11.036;2023-03-23T02:20:54;11.60;99.90
5059;DHT22;2548;52.050;11.036;2023-03-23T02:23:51;11.60;99.90
5059;DHT22;2548;52.050;11.036;2023-03-23T02:26:32;11.60;99.90
5059;DHT22;2548;52.050;11.036;2023-03-23T02:29:19;11.60;99.90
5059;DHT22;2548;52.050;11.036;2023-03-23T02:32:05;11.60;99.90
5059;DHT22;2548;52.050;11.036;2023-03-23T02:34:38;11.60;99.90
5059;DHT22;2548;52.050;11.036;2023-03-23T02:37:09;11.60;99.90
5059;DHT22;2548;52.050;11.036;2023-03-23T02:39:44;11.60;99.90
5059;DHT22;2548;52.050;11.036;2023-03-23T02:42:18;11.70;99.90
5059;DHT22;2548;52.050;11.036;2023-03-23T02:44:48;11.60;99.90
5059;DHT22;2548;52.050;11.036;2023-03-23T02:47:21;11.60;99.90
5059;DHT22;2548;52.050;11.036;2023-03-23T02:49:53;11.70;99.90
5059;DHT22;2548;52.050;11.036;2023-03-23T02:52:24;11.60;99.90
5059;DHT22;2548;52.050;11.036;2023-03-23T02:54:54;11.70;99.90
5059;DHT22;2548;52.050;11.036;2023-03-23T02:57:24;11.70;99.90
5059;DHT22;2548;52.050;11.036;2023-03-23T02:59:54;11.80;99.90
5059;DHT22;2548;52.050;11.036;2023-03-23T03:02:23;11.80;99.90
5059;DHT22;2548;52.050;11.036;2023-03-23T03:04:58;11.80;99.90
5059;DHT22;2548;52.050;11.036;2023-03-23T03:07:39;11.90;99.90
5059;DHT22;2548;52.050;11.036;2023-03-23T03:10:13;11.80;99.90
5059;DHT22;2548;52.050;11.036;2023-03-23T03:12:46;11.80;99.90
5059;DHT22;2548;52.050;11.036;2023-03-23T03:15:27;11.70;99.90
5059;DHT22;2548;52.050;11.036;2023-03-23T03:18:02;11.70;99.90
5059;DHT22;2548;52.050;11.036;2023-03-23T03:20:37;11.70;99.90
5059;DHT22;2548;52.050;11.036;2023-03-23T03:23:06;11.70;99.90
5059;DHT22;2548;52.050;11.036;2023-03-23T03:25:36;11.70;99.90
5059;DHT22;2548;52.050;11.036;2023-03-23T03:28:04;11.70;99.90
5059;DHT22;2548;52.050;11.036;2023-03-23T03:30:43;11.70;99.90
5059;DHT22;2548;52.050;11.036;2023-03-23T03:33:13;11.70;99.90
5059;DHT22;2548;52.050;11.036;2023-03-23T03:35:43;11.70;99.90
5059;DHT22;2548;52.050;11.036;2023-03-23T03:38:11;11.70;99.90
5059;DHT22;2548;52.050;11.036;2023-03-23T03:40:39;11.90;99.90
5059;DHT22;2548;52.050;11.036;2023-03-23T03:43:07;11.90;99.90
5059;DHT22;2548;52.050;11.036;2023-03-23T03:45:34;11.90;99.90
5059;DHT22;2548;52.050;11.036;2023-03-23T03:48:02;11.90;99.90
5059;DHT22;2548;52.050;11.036;2023-03-23T03:50:30;11.90;99.90
5059;DHT22;2548;52.050;11.036;2023-03-23T03:53:00;11.90;99.90
5059;DHT22;2548;52.050;11.036;2023-03-23T03:55:28;11.90;99.90
5059;DHT22;2548;52.050;11.036;2023-03-23T03:58:02;11.90;99.90
5059;DHT22;2548;52.050;11.036;2023-03-23T04:00:57;11.80;99.90
5059;DHT22;2548;52.050;11.036;2023-03-23T04:03:29;11.70;99.90
5059;DHT22;2548;52.050;11.036;2023-03-23T04:06:19;11.70;99.90
5059;DHT22;2548;52.050;11.036;2023-03-23T04:08:48;11.60;99.90
5059;DHT22;2548;52.050;11.036;2023-03-23T04:11:16;11.60;99.90
5059;DHT22;2548;52.050;11.036;2023-03-23T04:13:43;11.60;99.90
5059;DHT22;2548;52.050;11.036;2023-03-23T04:16:18;11.50;99.90
5059;DHT22;2548;52.050;11.036;2023-03-23T04:18:47;11.50;99.90
5059;DHT22;2548;52.050;11.036;2023-03-23T04:21:17;11.40;99.90
5059;DHT22;2548;52.050;11.036;2023-03-23T04:23:49;11.40;99.90
5059;DHT22;2548;52.050;11.036;2023-03-23T04:26:17;11.40;99.90
5059;DHT22;2548;52.050;11.036;2023-03-23T04:28:48;11.40;99.90
5059;DHT22;2548;52.050;11.036;2023-03-23T04:31:34;11.40;99.90
5059;DHT22;2548;52.050;11.036;2023-03-23T04:34:17;11.40;99.90
5059;DHT22;2548;52.050;11.036;2023-03-23T04:36:48;11.40;99.90
5059;DHT22;2548;52.050;11.036;2023-03-23T04:39:22;11.40;99.90
5059;DHT22;2548;52.050;11.036;2023-03-23T04:41:50;11.30;99.90
5059;DHT22;2548;52.050;11.036;2023-03-23T04:44:26;11.40;99.90
5059;DHT22;2548;52.050;11.036;2023-03-23T04:47:05;11.40;99.90
5059;DHT22;2548;52.050;11.036;2023-03-23T04:49:38;11.40;99.90
5059;DHT22;2548;52.050;11.036;2023-03-23T04:52:14;11.40;99.90
5059;DHT22;2548;52.050;11.036;2023-03-23T04:54:45;11.40;99.90
5059;DHT22;2548;52.050;11.036;2023-03-23T04:57:13;11.30;99.90
5059;DHT22;2548;52.050;11.036;2023-03-23T04:59:49;11.40;99.90
5059;DHT22;2548;52.050;11.036;2023-03-23T05:02:21;11.30;99.90
5059;DHT22;2548;52.050;11.036;2023-03-23T05:04:49;11.30;99.90
5059;DHT22;2548;52.050;11.036;2023-03-23T05:07:24;11.30;99.90
5059;DHT22;2548;52.050;11.036;2023-03-23T05:09:55;11.30;99.90
5059;DHT22;2548;52.050;11.036;2023-03-23T05:12:26;11.30;99.90
5059;DHT22;2548;52.050;11.036;2023-03-23T05:14:59;11.30;99.90
5059;DHT22;2548;52.050;11.036;2023-03-23T05:17:29;11.30;99.90
5059;DHT22;2548;52.050;11.036;2023-03-23T05:20:00;11.30;99.90
5059;DHT22;2548;52.050;11.036;2023-03-23T05:22:42;11.20;99.90
5059;DHT22;2548;52.050;11.036;2023-03-23T05:25:13;11.20;99.90
5059;DHT22;2548;52.050;11.036;2023-03-23T05:27:47;11.20;99.90
5059;DHT22;2548;52.050;11.036;2023-03-23T05:30:48;11.10;99.90
5059;DHT22;2548;52.050;11.036;2023-03-23T05:33:17;11.10;99.90
5059;DHT22;2548;52.050;11.036;2023-03-23T05:35:54;11.10;99.90
5059;DHT22;2548;52.050;11.036;2023-03-23T05:38:29;11.10;99.90
5059;DHT22;2548;52.050;11.036;2023-03-23T05:41:00;11.00;99.90
5059;DHT22;2548;52.050;11.036;2023-03-23T05:43:34;11.00;99.90
5059;DHT22;2548;52.050;11.036;2023-03-23T05:46:15;11.00;99.90
5059;DHT22;2548;52.050;11.036;2023-03-23T05:48:44;11.10;99.90
5059;DHT22;2548;52.050;11.036;2023-03-23T05:51:15;11.10;99.90
5059;DHT22;2548;52.050;11.036;2023-03-23T05:53:44;11.10;99.90
5059;DHT22;2548;52.050;11.036;2023-03-23T05:56:16;11.10;99.90
5059;DHT22;2548;52.050;11.036;2023-03-23T05:58:56;11.10;99.90
5059;DHT22;2548;52.050;11.036;2023-03-23T06:01:23;11.10;99.90
5059;DHT22;2548;52.050;11.036;2023-03-23T06:03:51;11.20;99.90
5059;DHT22;2548;52.050;11.036;2023-03-23T06:06:24;11.20;99.90
5059;DHT22;2548;52.050;11.036;2023-03-23T06:08:57;11.20;99.90
5059;DHT22;2548;52.050;11.036;2023-03-23T06:11:45;11.20;99.90
5059;DHT22;2548;52.050;11.036;2023-03-23T06:14:39;11.20;99.90
5059;DHT22;2548;52.050;11.036;2023-03-23T06:17:07;11.10;99.90
5059;DHT22;2548;52.050;11.036;2023-03-23T06:19:35;11.10;99.90
5059;DHT22;2548;52.050;11.036;2023-03-23T06:22:08;11.10;99.90
5059;DHT22;2548;52.050;11.036;2023-03-23T06:24:42;11.10;99.90
5059;DHT22;2548;52.050;11.036;2023-03-23T06:27:12;11.10;99.90
5059;DHT22;2548;52.050;11.036;2023-03-23T06:29:42;11.10;99.90
5059;DHT22;2548;52.050;11.036;2023-03-23T06:32:10;11.20;99.90
5059;DHT22;2548;52.050;11.036;2023-03-23T06:34:41;11.20;99.90
5059;DHT22;2548;52.050;11.036;2023-03-23T06:37:27;11.20;99.90
5059;DHT22;2548;52.050;11.036;2023-03-23T06:40:08;11.20;99.90
5059;DHT22;2548;52.050;11.036;2023-03-23T06:42:43;11.30;99.90
5059;DHT22;2548;52.050;11.036;2023-03-23T06:45:29;11.30;99.90
5059;DHT22;2548;52.050;11.036;2023-03-23T06:48:15;11.30;99.90
5059;DHT22;2548;52.050;11.036;2023-03-23T06:50:44;11.30;99.90
5059;DHT22;2548;52.050;11.036;2023-03-23T06:53:14;11.40;99.90
5059;DHT22;2548;52.050;11.036;2023-03-23T06:55:43;11.40;99.90
5059;DHT22;2548;52.050;11.036;2023-03-23T06:58:13;11.40;99.90
5059;DHT22;2548;52.050;11.036;2023-03-23T07:00:40;11.40;99.90
5059;DHT22;2548;52.050;11.036;2023-03-23T07:03:10;11.40;99.90
5059;DHT22;2548;52.050;11.036;2023-03-23T07:05:39;11.50;99.90
5059;DHT22;2548;52.050;11.036;2023-03-23T07:08:08;11.50;99.90
5059;DHT22;2548;52.050;11.036;2023-03-23T07:10:41;11.60;99.90
5059;DHT22;2548;52.050;11.036;2023-03-23T07:13:10;11.60;99.90
5059;DHT22;2548;52.050;11.036;2023-03-23T07:15:47;11.60;99.90
5059;DHT22;2548;52.050;11.036;2023-03-23T07:18:15;11.60;99.90
5059;DHT22;2548;52.050;11.036;2023-03-23T07:20:47;11.60;99.90
5059;DHT22;2548;52.050;11.036;2023-03-23T07:23:15;11.60;99.90
5059;DHT22;2548;52.050;11.036;2023-03-23T07:25:48;11.60;99.90
5059;DHT22;2548;52.050;11.036;2023-03-23T07:28:21;11.70;99.90
5059;DHT22;2548;52.050;11.036;2023-03-23T07:30:51;11.70;99.90
5059;DHT22;2548;52.050;11.036;2023-03-23T07:33:18;11.80;99.90
5059;DHT22;2548;52.050;11.036;2023-03-23T07:35:46;11.90;99.90
5059;DHT22;2548;52.050;11.036;2023-03-23T07:38:16;11.90;99.90
5059;DHT22;2548;52.050;11.036;2023-03-23T07:40:47;12.00;99.90
5059;DHT22;2548;52.050;11.036;2023-03-23T07:43:17;12.10;99.90
5059;DHT22;2548;52.050;11.036;2023-03-23T07:45:52;12.10;99.90
5059;DHT22;2548;52.050;11.036;2023-03-23T07:48:22;12.10;99.90
5059;DHT22;2548;52.050;11.036;2023-03-23T07:50:51;12.10;99.90
5059;DHT22;2548;52.050;11.036;2023-03-23T07:53:19;12.20;99.90
5059;DHT22;2548;52.050;11.036;2023-03-23T07:55:54;12.20;99.90
5059;DHT22;2548;52.050;11.036;2023-03-23T07:58:45;12.20;99.90
5059;DHT22;2548;52.050;11.036;2023-03-23T08:01:14;12.20;99.90
5059;DHT22;2548;52.050;11.036;2023-03-23T08:03:53;12.20;99.90
5059;DHT22;2548;52.050;11.036;2023-03-23T08:06:43;12.30;99.90
5059;DHT22;2548;52.050;11.036;2023-03-23T08:09:25;12.30;99.90
5059;DHT22;2548;52.050;11.036;2023-03-23T08:12:11;12.30;99.90
5059;DHT22;2548;52.050;11.036;2023-03-23T08:14:58;12.40;99.90
5059;DHT22;2548;52.050;11.036;2023-03-23T08:17:27;12.50;99.90
5059;DHT22;2548;52.050;11.036;2023-03-23T08:20:15;12.50;99.90
5059;DHT22;2548;52.050;11.036;2023-03-23T08:23:03;12.60;99.90
5059;DHT22;2548;52.050;11.036;2023-03-23T08:25:47;12.60;99.90
5059;DHT22;2548;52.050;11.036;2023-03-23T08:28:25;12.70;99.90
5059;DHT22;2548;52.050;11.036;2023-03-23T08:31:13;12.80;99.90
5059;DHT22;2548;52.050;11.036;2023-03-23T08:34:00;12.90;99.90
5059;DHT22;2548;52.050;11.036;2023-03-23T08:36:32;12.90;99.90
5059;DHT22;2548;52.050;11.036;2023-03-23T08:39:35;13.00;99.90
5059;DHT22;2548;52.050;11.036;2023-03-23T08:42:14;13.10;99.90
5059;DHT22;2548;52.050;11.036;2023-03-23T08:44:56;13.20;99.90
5059;DHT22;2548;52.050;11.036;2023-03-23T08:47:43;13.30;99.90
5059;DHT22;2548;52.050;11.036;2023-03-23T08:50:28;13.30;99.90
5059;DHT22;2548;52.050;11.036;2023-03-23T08:53:05;13.30;99.90
5059;DHT22;2548;52.050;11.036;2023-03-23T08:55:48;13.40;99.90
5059;DHT22;2548;52.050;11.036;2023-03-23T08:58:40;13.40;99.90
5059;DHT22;2548;52.050;11.036;2023-03-23T09:01:28;13.50;99.90
5059;DHT22;2548;52.050;11.036;2023-03-23T09:04:06;13.50;99.90
5059;DHT22;2548;52.050;11.036;2023-03-23T09:07:11;13.50;99.90
5059;DHT22;2548;52.050;11.036;2023-03-23T09:09:40;13.50;99.90
5059;DHT22;2548;52.050;11.036;2023-03-23T09:12:09;13.50;99.90
5059;DHT22;2548;52.050;11.036;2023-03-23T09:14:37;13.60;99.90
5059;DHT22;2548;52.050;11.036;2023-03-23T09:17:05;13.60;99.90
5059;DHT22;2548;52.050;11.036;2023-03-23T09:19:34;13.70;99.90
5059;DHT22;2548;52.050;11.036;2023-03-23T09:22:02;13.80;99.90
5059;DHT22;2548;52.050;11.036;2023-03-23T09:24:31;13.90;99.90
5059;DHT22;2548;52.050;11.036;2023-03-23T09:26:58;13.90;99.90
5059;DHT22;2548;52.050;11.036;2023-03-23T09:29:29;14.00;99.90
5059;DHT22;2548;52.050;11.036;2023-03-23T09:31:57;14.10;99.90
5059;DHT22;2548;52.050;11.036;2023-03-23T09:34:24;14.10;99.90
5059;DHT22;2548;52.050;11.036;2023-03-23T09:36:58;14.20;99.90
5059;DHT22;2548;52.050;11.036;2023-03-23T09:39:31;14.20;99.90
5059;DHT22;2548;52.050;11.036;2023-03-23T09:42:18;14.20;99.90
5059;DHT22;2548;52.050;11.036;2023-03-23T09:45:01;14.20;99.90
5059;DHT22;2548;52.050;11.036;2023-03-23T09:47:38;14.30;99.90
5059;DHT22;2548;52.050;11.036;2023-03-23T09:50:11;14.40;99.90
5059;DHT22;2548;52.050;11.036;2023-03-23T09:52:44;14.50;99.90
5059;DHT22;2548;52.050;11.036;2023-03-23T09:55:16;14.50;99.90
5059;DHT22;2548;52.050;11.036;2023-03-23T09:57:49;14.50;99.90
5059;DHT22;2548;52.050;11.036;2023-03-23T10:00:22;14.60;99.90
5059;DHT22;2548;52.050;11.036;2023-03-23T10:02:58;14.60;99.90
5059;DHT22;2548;52.050;11.036;2023-03-23T10:05:35;14.70;99.90
5059;DHT22;2548;52.050;11.036;2023-03-23T10:08:11;14.70;99.90
5059;DHT22;2548;52.050;11.036;2023-03-23T10:10:48;14.70;99.90
5059;DHT22;2548;52.050;11.036;2023-03-23T10:13:33;14.70;99.90
5059;DHT22;2548;52.050;11.036;2023-03-23T10:16:06;14.70;99.90
5059;DHT22;2548;52.050;11.036;2023-03-23T10:18:37;14.60;99.90
5059;DHT22;2548;52.050;11.036;2023-03-23T10:21:14;14.60;99.90
5059;DHT22;2548;52.050;11.036;2023-03-23T10:23:52;14.70;99.90
5059;DHT22;2548;52.050;11.036;2023-03-23T10:26:39;14.70;99.90
5059;DHT22;2548;52.050;11.036;2023-03-23T10:29:18;14.80;99.90
5059;DHT22;2548;52.050;11.036;2023-03-23T10:31:51;14.70;99.90
5059;DHT22;2548;52.050;11.036;2023-03-23T10:34:23;14.80;99.90
5059;DHT22;2548;52.050;11.036;2023-03-23T10:36:58;14.80;99.90
5059;DHT22;2548;52.050;11.036;2023-03-23T10:39:30;14.90;99.90
5059;DHT22;2548;52.050;11.036;2023-03-23T10:42:01;14.90;99.90
5059;DHT22;2548;52.050;11.036;2023-03-23T10:44:34;15.00;99.90
5059;DHT22;2548;52.050;11.036;2023-03-23T10:47:04;15.10;99.90
5059;DHT22;2548;52.050;11.036;2023-03-23T10:49:37;15.10;99.90
5059;DHT22;2548;52.050;11.036;2023-03-23T10:52:14;15.10;99.90
5059;DHT22;2548;52.050;11.036;2023-03-23T10:54:54;15.10;99.90
5059;DHT22;2548;52.050;11.036;2023-03-23T10:57:30;15.20;99.90
5059;DHT22;2548;52.050;11.036;2023-03-23T11:00:01;15.20;99.90
5059;DHT22;2548;52.050;11.036;2023-03-23T11:02:39;15.20;99.90
5059;DHT22;2548;52.050;11.036;2023-03-23T11:05:17;15.20;99.90
5059;DHT22;2548;52.050;11.036;2023-03-23T11:07:50;15.20;99.90
5059;DHT22;2548;52.050;11.036;2023-03-23T11:10:40;15.10;99.90
5059;DHT22;2548;52.050;11.036;2023-03-23T11:13:16;15.10;99.90
5059;DHT22;2548;52.050;11.036;2023-03-23T11:15:53;15.10;99.90
5059;DHT22;2548;52.050;11.036;2023-03-23T11:18:23;15.10;99.90
5059;DHT22;2548;52.050;11.036;2023-03-23T11:20:54;15.10;99.90
5059;DHT22;2548;52.050;11.036;2023-03-23T11:23:24;15.20;99.90
5059;DHT22;2548;52.050;11.036;2023-03-23T11:25:55;15.10;99.90
5059;DHT22;2548;52.050;11.036;2023-03-23T11:28:29;15.10;99.90
5059;DHT22;2548;52.050;11.036;2023-03-23T11:31:00;15.10;99.90
5059;DHT22;2548;52.050;11.036;2023-03-23T11:33:36;15.10;99.90
5059;DHT22;2548;52.050;11.036;2023-03-23T11:36:06;15.10;99.90
5059;DHT22;2548;52.050;11.036;2023-03-23T11:38:37;15.10;99.90
5059;DHT22;2548;52.050;11.036;2023-03-23T11:41:10;15.10;99.90
5059;DHT22;2548;52.050;11.036;2023-03-23T11:43:46;15.10;99.90
5059;DHT22;2548;52.050;11.036;2023-03-23T11:46:38;15.20;99.90
5059;DHT22;2548;52.050;11.036;2023-03-23T11:49:17;15.10;99.90
5059;DHT22;2548;52.050;11.036;2023-03-23T11:51:48;15.20;99.90
5059;DHT22;2548;52.050;11.036;2023-03-23T11:54:21;15.30;99.90
5059;DHT22;2548;52.050;11.036;2023-03-23T11:56:54;15.50;99.90
5059;DHT22;2548;52.050;11.036;2023-03-23T11:59:29;15.60;99.90
5059;DHT22;2548;52.050;11.036;2023-03-23T12:02:18;15.70;99.90
5059;DHT22;2548;52.050;11.036;2023-03-23T12:05:02;15.90;99.90
5059;DHT22;2548;52.050;11.036;2023-03-23T12:08:02;16.00;99.90
5059;DHT22;2548;52.050;11.036;2023-03-23T12:10:46;16.10;99.90
5059;DHT22;2548;52.050;11.036;2023-03-23T12:13:30;16.20;99.90
5059;DHT22;2548;52.050;11.036;2023-03-23T12:16:08;16.20;99.90
5059;DHT22;2548;52.050;11.036;2023-03-23T12:18:50;16.30;99.90
5059;DHT22;2548;52.050;11.036;2023-03-23T12:21:24;16.40;99.90
5059;DHT22;2548;52.050;11.036;2023-03-23T12:24:12;16.40;99.90
5059;DHT22;2548;52.050;11.036;2023-03-23T12:26:50;16.20;99.90
5059;DHT22;2548;52.050;11.036;2023-03-23T12:29:31;16.10;99.90
5059;DHT22;2548;52.050;11.036;2023-03-23T12:32:23;16.10;99.90
5059;DHT22;2548;52.050;11.036;2023-03-23T12:35:00;16.20;99.90
5059;DHT22;2548;52.050;11.036;2023-03-23T12:37:41;16.40;99.90
5059;DHT22;2548;52.050;11.036;2023-03-23T12:40:22;16.40;99.90
5059;DHT22;2548;52.050;11.036;2023-03-23T12:43:04;16.40;99.90
5059;DHT22;2548;52.050;11.036;2023-03-23T12:46:16;16.30;99.90
5059;DHT22;2548;52.050;11.036;2023-03-23T12:48:52;16.30;99.90
5059;DHT22;2548;52.050;11.036;2023-03-23T12:51:24;16.40;99.90
5059;DHT22;2548;52.050;11.036;2023-03-23T12:53:58;16.50;99.90
5059;DHT22;2548;52.050;11.036;2023-03-23T12:56:31;16.60;99.90
5059;DHT22;2548;52.050;11.036;2023-03-23T12:59:10;16.70;99.90
5059;DHT22;2548;52.050;11.036;2023-03-23T13:01:43;16.80;99.90
5059;DHT22;2548;52.050;11.036;2023-03-23T13:04:15;16.90;99.90
5059;DHT22;2548;52.050;11.036;2023-03-23T13:06:52;17.00;99.90
5059;DHT22;2548;52.050;11.036;2023-03-23T13:09:30;17.00;99.90
5059;DHT22;2548;52.050;11.036;2023-03-23T13:12:02;16.70;99.90
5059;DHT22;2548;52.050;11.036;2023-03-23T13:14:41;16.40;99.90
5059;DHT22;2548;52.050;11.036;2023-03-23T13:17:26;16.20;99.90
5059;DHT22;2548;52.050;11.036;2023-03-23T13:23:05;16.20;99.90
5059;DHT22;2548;52.050;11.036;2023-03-23T13:25:50;16.30;99.90
5059;DHT22;2548;52.050;11.036;2023-03-23T13:28:26;16.60;99.90
5059;DHT22;2548;52.050;11.036;2023-03-23T13:30:56;16.60;99.90
5059;DHT22;2548;52.050;11.036;2023-03-23T13:33:34;16.80;99.90
5059;DHT22;2548;52.050;11.036;2023-03-23T13:36:10;16.80;99.90
5059;DHT22;2548;52.050;11.036;2023-03-23T13:38:45;16.90;99.90
5059;DHT22;2548;52.050;11.036;2023-03-23T13:41:18;17.00;99.90
5059;DHT22;2548;52.050;11.036;2023-03-23T13:43:48;17.10;99.90
5059;DHT22;2548;52.050;11.036;2023-03-23T13:46:28;17.10;99.90
5059;DHT22;2548;52.050;11.036;2023-03-23T13:49:19;17.00;99.90
5059;DHT22;2548;52.050;11.036;2023-03-23T13:54:46;16.90;99.90
5059;DHT22;2548;52.050;11.036;2023-03-23T13:57:35;16.90;99.90
5059;DHT22;2548;52.050;11.036;2023-03-23T14:00:44;16.80;99.90
5059;DHT22;2548;52.050;11.036;2023-03-23T14:03:15;16.70;99.90
5059;DHT22;2548;52.050;11.036;2023-03-23T14:05:44;16.70;99.90
5059;DHT22;2548;52.050;11.036;2023-03-23T14:08:22;16.90;99.90
5059;DHT22;2548;52.050;11.036;2023-03-23T14:10:59;16.70;99.90
5059;DHT22;2548;52.050;11.036;2023-03-23T14:13:40;16.60;99.90
5059;DHT22;2548;52.050;11.036;2023-03-23T14:16:17;16.60;99.90
5059;DHT22;2548;52.050;11.036;2023-03-23T14:18:52;16.70;99.90
5059;DHT22;2548;52.050;11.036;2023-03-23T14:21:31;16.90;99.90
5059;DHT22;2548;52.050;11.036;2023-03-23T14:24:04;17.10;99.90
5059;DHT22;2548;52.050;11.036;2023-03-23T14:26:35;17.30;99.90
5059;DHT22;2548;52.050;11.036;2023-03-23T14:29:04;17.30;99.90
5059;DHT22;2548;52.050;11.036;2023-03-23T14:31:32;17.30;99.90
5059;DHT22;2548;52.050;11.036;2023-03-23T14:34:03;17.20;99.90
5059;DHT22;2548;52.050;11.036;2023-03-23T14:36:34;17.00;99.90
5059;DHT22;2548;52.050;11.036;2023-03-23T14:39:06;17.00;99.90
5059;DHT22;2548;52.050;11.036;2023-03-23T14:41:36;16.90;99.90
5059;DHT22;2548;52.050;11.036;2023-03-23T14:44:06;16.70;99.90
5059;DHT22;2548;52.050;11.036;2023-03-23T14:46:36;16.50;99.90
5059;DHT22;2548;52.050;11.036;2023-03-23T14:49:04;16.40;99.90
5059;DHT22;2548;52.050;11.036;2023-03-23T14:51:33;16.30;99.90
5059;DHT22;2548;52.050;11.036;2023-03-23T14:54:01;16.30;99.90
5059;DHT22;2548;52.050;11.036;2023-03-23T14:56:35;16.20;99.90
5059;DHT22;2548;52.050;11.036;2023-03-23T14:59:05;16.10;99.90
5059;DHT22;2548;52.050;11.036;2023-03-23T15:01:36;15.90;99.90
5059;DHT22;2548;52.050;11.036;2023-03-23T15:04:08;15.90;99.90
5059;DHT22;2548;52.050;11.036;2023-03-23T15:06:41;15.70;99.90
5059;DHT22;2548;52.050;11.036;2023-03-23T15:09:13;15.40;99.90
5059;DHT22;2548;52.050;11.036;2023-03-23T15:11:55;15.20;99.90
5059;DHT22;2548;52.050;11.036;2023-03-23T15:14:26;15.00;99.90
5059;DHT22;2548;52.050;11.036;2023-03-23T15:16:58;14.80;99.90
5059;DHT22;2548;52.050;11.036;2023-03-23T15:19:28;14.70;99.90
5059;DHT22;2548;52.050;11.036;2023-03-23T15:22:05;14.60;99.90
5059;DHT22;2548;52.050;11.036;2023-03-23T15:24:36;14.60;99.90
5059;DHT22;2548;52.050;11.036;2023-03-23T15:27:24;14.50;99.90
5059;DHT22;2548;52.050;11.036;2023-03-23T15:29:53;14.40;99.90
5059;DHT22;2548;52.050;11.036;2023-03-23T15:32:24;14.30;99.90
5059;DHT22;2548;52.050;11.036;2023-03-23T15:35:03;14.30;99.90
5059;DHT22;2548;52.050;11.036;2023-03-23T15:37:32;14.20;99.90
5059;DHT22;2548;52.050;11.036;2023-03-23T15:40:00;14.10;99.90
5059;DHT22;2548;52.050;11.036;2023-03-23T15:42:34;14.00;99.90
5059;DHT22;2548;52.050;11.036;2023-03-23T15:45:23;13.90;99.90
5059;DHT22;2548;52.050;11.036;2023-03-23T15:47:57;13.70;99.90
5059;DHT22;2548;52.050;11.036;2023-03-23T15:50:33;13.50;99.90
5059;DHT22;2548;52.050;11.036;2023-03-23T15:53:21;13.40;99.90
5059;DHT22;2548;52.050;11.036;2023-03-23T15:55:52;13.40;99.90
5059;DHT22;2548;52.050;11.036;2023-03-23T15:58:24;13.30;99.90
5059;DHT22;2548;52.050;11.036;2023-03-23T16:00:52;13.20;99.90
5059;DHT22;2548;52.050;11.036;2023-03-23T16:03:23;13.20;99.90
5059;DHT22;2548;52.050;11.036;2023-03-23T16:05:53;13.10;99.90
5059;DHT22;2548;52.050;11.036;2023-03-23T16:08:24;13.10;99.90
5059;DHT22;2548;52.050;11.036;2023-03-23T16:10:52;13.10;99.90
5059;DHT22;2548;52.050;11.036;2023-03-23T16:13:19;13.00;99.90
5059;DHT22;2548;52.050;11.036;2023-03-23T16:15:49;12.90;99.90
5059;DHT22;2548;52.050;11.036;2023-03-23T16:18:21;12.90;99.90
5059;DHT22;2548;52.050;11.036;2023-03-23T16:20:49;12.80;99.90
5059;DHT22;2548;52.050;11.036;2023-03-23T16:23:16;12.80;99.90
5059;DHT22;2548;52.050;11.036;2023-03-23T16:25:44;12.70;99.90
5059;DHT22;2548;52.050;11.036;2023-03-23T16:28:15;12.70;99.90
5059;DHT22;2548;52.050;11.036;2023-03-23T16:30:44;12.70;99.90
5059;DHT22;2548;52.050;11.036;2023-03-23T16:33:13;12.60;99.90
5059;DHT22;2548;52.050;11.036;2023-03-23T16:35:40;12.50;99.90
5059;DHT22;2548;52.050;11.036;2023-03-23T16:38:12;12.60;99.90
5059;DHT22;2548;52.050;11.036;2023-03-23T16:40:43;12.60;99.90